Kulusuk

KL  EN  DA
ASIAQ
Weather Now GREENLAND SURVEY
Updated [WGT/WGST] Temperature [°C] Wind [m/s] Air pressure [hPa] Relative humidity [%] Precipitation [mm]
Present Wind chill Speed Max
17.01 13:00-3,8-9,04,0 ⇑4,71005810,0
17.01 12:00-4,8-9,43,1 ⇗4,11005860,0
17.01 11:00-5,1-8,92,4 ⇒3,21005890,0
17.01 10:00-5,20,00,6 ⇗1,51005870,0
17.01 09:00-6,7-11,12,6 ⇗3,31005930,0
17.01 08:00-4,6-8,12,2 ⇗2,61005940,0
17.01 07:00-4,6-7,01,5 ⇒2,21005940,0
17.01 06:00-3,4-5,81,6 ⇗2,31004940,0
17.01 05:00-3,70,00,6 ⇗1,71004890,0
17.01 04:00-2,8-4,81,4 ⇑2,01004900,0
17.01 03:00-3,1-6,62,4 ⇑2,81004920,0
17.01 02:00-4,2-7,52,1 ⇗2,51003930,0
17.01 01:00-2,3-5,32,1 ⇗2,31003930,0
17.01 00:00-1,50,00,1 ⇗1,11003940,0
16.01 23:00-1,3-3,11,4 ⇗1,9100395-0,1
16.01 22:00-1,10,00,0 ⇓0,5100295-0,1
16.01 21:00-1,00,00,4 ⇒1,3100296-0,1
16.01 20:00-1,10,00,9 ⇒1,31002960,0
16.01 19:00-0,90,01,1 ⇓1,6100295-0,1
16.01 18:00-0,80,00,8 ⇒1,7100293-0,1
16.01 17:00-0,7-4,43,1 ⇐4,4100291-0,1
16.01 16:00-0,6-5,64,9 ⇐6,0100289-0,1
16.01 15:00-0,3-5,45,2 ⇐7,21001890,0
16.01 14:00-0,6-6,36,1 ⇐7,8100288-0,1
16.01 13:00-0,6-5,85,3 ⇐6,51002890,0
Position: (65.583333,-37.15)

[Back]